createdAt,value
2023-02-28T00:00:26.118Z,1.80
2023-02-28T00:02:53.726Z,1.80
2023-02-28T00:05:24.014Z,1.80
2023-02-28T00:07:51.479Z,1.60
2023-02-28T00:10:28.425Z,1.70
2023-02-28T00:13:00.428Z,1.70
2023-02-28T00:15:28.156Z,1.50
2023-02-28T00:17:55.994Z,1.50
2023-02-28T00:20:24.398Z,1.60
2023-02-28T00:22:54.817Z,1.60
2023-02-28T00:25:25.287Z,1.60
2023-02-28T00:27:53.720Z,1.50
2023-02-28T00:30:23.889Z,1.50
2023-02-28T00:32:52.648Z,1.50
2023-02-28T00:35:20.373Z,1.50
2023-02-28T00:37:55.315Z,1.50
2023-02-28T00:40:23.243Z,1.40
2023-02-28T00:42:51.034Z,1.40
2023-02-28T00:45:18.584Z,1.30
2023-02-28T00:47:54.801Z,1.30
2023-02-28T00:50:22.569Z,1.20
2023-02-28T00:53:27.837Z,1.30
2023-02-28T00:55:55.322Z,1.30
2023-02-28T00:58:23.045Z,1.30
2023-02-28T01:00:50.475Z,1.30
2023-02-28T01:03:19.775Z,1.40
2023-02-28T01:05:48.838Z,1.40
2023-02-28T01:08:16.492Z,1.40
2023-02-28T01:10:44.031Z,1.50
2023-02-28T01:13:11.917Z,1.40
2023-02-28T01:15:43.646Z,1.50
2023-02-28T01:18:10.919Z,1.50
2023-02-28T01:20:39.316Z,1.60
2023-02-28T01:23:06.714Z,1.50
2023-02-28T01:25:37.420Z,1.60
2023-02-28T01:28:05.574Z,1.50
2023-02-28T01:30:33.442Z,1.50
2023-02-28T01:33:01.660Z,1.50
2023-02-28T01:35:28.939Z,1.60
2023-02-28T01:38:00.970Z,1.70
2023-02-28T01:40:34.118Z,1.70
2023-02-28T01:43:02.360Z,1.60
2023-02-28T01:45:37.406Z,1.60
2023-02-28T01:48:10.571Z,1.50
2023-02-28T01:50:42.309Z,1.60
2023-02-28T01:53:15.527Z,1.60
2023-02-28T01:55:45.912Z,1.80
2023-02-28T01:58:13.561Z,1.60
2023-02-28T02:00:42.453Z,1.70
2023-02-28T02:03:16.959Z,1.80
2023-02-28T02:05:48.933Z,1.70
2023-02-28T02:08:23.862Z,1.70
2023-02-28T02:10:55.226Z,1.50
2023-02-28T02:13:40.196Z,1.60
2023-02-28T02:16:28.046Z,1.60
2023-02-28T02:19:26.942Z,1.60
2023-02-28T02:22:13.284Z,1.60
2023-02-28T02:25:03.978Z,1.40
2023-02-28T02:27:49.618Z,1.50
2023-02-28T02:30:23.458Z,1.50
2023-02-28T02:33:01.964Z,1.50
2023-02-28T02:35:54.562Z,1.50
2023-02-28T02:38:35.819Z,1.70
2023-02-28T02:41:12.900Z,1.70
2023-02-28T02:43:57.265Z,1.80
2023-02-28T02:46:38.422Z,1.80
2023-02-28T02:49:11.053Z,2.00
2023-02-28T02:51:41.474Z,2.00
2023-02-28T02:54:24.305Z,2.00
2023-02-28T02:56:52.766Z,2.00
2023-02-28T02:59:24.798Z,2.00
2023-02-28T03:01:55.736Z,2.10
2023-02-28T03:04:25.199Z,2.00
2023-02-28T03:06:56.128Z,2.00
2023-02-28T03:09:23.851Z,2.20
2023-02-28T03:11:53.482Z,2.20
2023-02-28T03:14:27.158Z,2.20
2023-02-28T03:17:00.531Z,2.20
2023-02-28T03:19:49.585Z,2.10
2023-02-28T03:22:39.199Z,2.10
2023-02-28T03:25:26.318Z,2.10
2023-02-28T03:28:12.080Z,2.10
2023-02-28T03:30:54.914Z,2.00
2023-02-28T03:33:55.770Z,2.10
2023-02-28T03:36:33.326Z,2.10
2023-02-28T03:39:05.055Z,2.10
2023-02-28T03:41:58.045Z,2.10
2023-02-28T03:44:43.591Z,2.20
2023-02-28T03:47:24.144Z,2.20
2023-02-28T03:49:57.311Z,2.20
2023-02-28T03:52:28.333Z,2.30
2023-02-28T03:55:01.752Z,2.20
2023-02-28T03:57:43.531Z,2.20
2023-02-28T04:00:19.352Z,2.10
2023-02-28T04:02:46.381Z,2.20
2023-02-28T04:05:13.261Z,2.20
2023-02-28T04:07:40.188Z,2.20
2023-02-28T04:10:08.081Z,2.20
2023-02-28T04:15:51.370Z,2.30
2023-02-28T04:18:18.351Z,2.20
2023-02-28T04:20:45.322Z,2.30
2023-02-28T04:23:12.233Z,2.20
2023-02-28T04:25:41.399Z,2.30
2023-02-28T04:28:08.495Z,2.30
2023-02-28T04:30:35.399Z,2.20
2023-02-28T04:33:02.342Z,2.40
2023-02-28T04:35:29.245Z,2.40
2023-02-28T04:37:56.244Z,2.20
2023-02-28T04:40:23.185Z,2.20
2023-02-28T04:42:50.232Z,2.20
2023-02-28T04:45:18.345Z,2.20
2023-02-28T04:47:45.274Z,2.00
2023-02-28T04:50:12.307Z,2.00
2023-02-28T04:52:39.249Z,2.10
2023-02-28T04:55:06.838Z,2.00
2023-02-28T04:57:33.833Z,1.90
2023-02-28T05:00:00.733Z,2.00
2023-02-28T05:02:27.705Z,1.80
2023-02-28T05:04:54.761Z,1.90
2023-02-28T05:07:21.810Z,1.80
2023-02-28T05:09:48.676Z,1.80
2023-02-28T05:12:15.837Z,1.70
2023-02-28T05:14:43.087Z,1.80
2023-02-28T05:17:11.256Z,1.80
2023-02-28T05:19:38.186Z,1.70
2023-02-28T05:22:05.160Z,1.90
2023-02-28T05:24:32.194Z,1.80
2023-02-28T05:26:59.158Z,1.90
2023-02-28T05:29:26.296Z,1.90
2023-02-28T05:31:53.346Z,1.80
2023-02-28T05:34:20.383Z,1.80
2023-02-28T05:36:47.455Z,1.90
2023-02-28T05:39:14.452Z,2.00
2023-02-28T05:48:14.882Z,1.80
2023-02-28T05:50:43.543Z,1.70
2023-02-28T05:53:10.469Z,1.70
2023-02-28T05:55:38.468Z,1.80
2023-02-28T05:58:05.387Z,1.70
2023-02-28T06:00:32.386Z,1.70
2023-02-28T06:03:02.606Z,1.50
2023-02-28T06:05:29.633Z,1.60
2023-02-28T06:07:56.580Z,1.40
2023-02-28T06:10:23.516Z,1.40
2023-02-28T06:12:50.597Z,1.30
2023-02-28T06:15:17.732Z,1.30
2023-02-28T06:17:45.627Z,1.40
2023-02-28T06:20:16.607Z,1.30
2023-02-28T06:22:43.780Z,1.30
2023-02-28T06:25:11.257Z,1.30
2023-02-28T06:27:38.222Z,1.30
2023-02-28T06:30:05.451Z,1.40
2023-02-28T06:32:32.324Z,1.40
2023-02-28T06:34:59.192Z,1.40
2023-02-28T06:37:27.153Z,1.40
2023-02-28T06:39:56.820Z,1.40
2023-02-28T06:42:29.728Z,1.40
2023-02-28T06:44:57.203Z,1.40
2023-02-28T06:47:24.218Z,1.40
2023-02-28T06:49:51.611Z,1.30
2023-02-28T06:52:18.620Z,1.40
2023-02-28T06:54:45.501Z,1.30
2023-02-28T06:57:12.416Z,1.30
2023-02-28T06:59:39.272Z,1.30
2023-02-28T07:02:07.804Z,1.40
2023-02-28T07:04:34.646Z,1.40
2023-02-28T07:07:01.587Z,1.50
2023-02-28T07:09:31.081Z,1.50
2023-02-28T07:11:58.122Z,1.50
2023-02-28T07:14:25.077Z,1.70
2023-02-28T07:16:52.037Z,1.50
2023-02-28T07:19:18.996Z,1.60
2023-02-28T07:21:46.240Z,1.80
2023-02-28T07:24:13.379Z,1.50
2023-02-28T07:26:40.424Z,1.70
2023-02-28T07:29:07.588Z,1.50
2023-02-28T07:31:34.754Z,1.70
2023-02-28T07:34:01.827Z,1.60
2023-02-28T07:36:28.816Z,1.70
2023-02-28T07:38:56.022Z,1.70
2023-02-28T07:41:25.749Z,1.80
2023-02-28T07:43:56.590Z,1.80
2023-02-28T07:46:23.728Z,1.80
2023-02-28T07:48:50.717Z,1.90
2023-02-28T07:51:17.825Z,2.00
2023-02-28T07:53:44.904Z,2.00
2023-02-28T07:56:14.568Z,2.20
2023-02-28T07:58:42.248Z,2.00
2023-02-28T08:01:10.987Z,2.10
2023-02-28T08:03:39.076Z,2.10
2023-02-28T08:06:07.658Z,2.20
2023-02-28T08:08:35.004Z,2.30
2023-02-28T08:11:03.975Z,2.40
2023-02-28T08:13:31.738Z,2.40
2023-02-28T08:15:58.788Z,2.80
2023-02-28T08:18:25.911Z,2.50
2023-02-28T08:20:52.827Z,2.50
2023-02-28T08:23:21.356Z,2.50
2023-02-28T08:26:03.160Z,2.60
2023-02-28T08:28:33.347Z,2.60
2023-02-28T08:31:00.499Z,2.90
2023-02-28T08:33:29.155Z,2.80
2023-02-28T08:35:57.186Z,2.80
2023-02-28T08:38:24.841Z,3.20
2023-02-28T08:40:57.687Z,3.20
2023-02-28T08:43:24.884Z,3.20
2023-02-28T08:45:57.940Z,3.20
2023-02-28T08:48:26.422Z,3.10
2023-02-28T08:51:08.099Z,3.00
2023-02-28T08:53:36.747Z,2.90
2023-02-28T08:56:12.914Z,2.80
2023-02-28T08:58:40.580Z,2.70
2023-02-28T09:01:22.878Z,2.70
2023-02-28T09:06:27.543Z,2.70
2023-02-28T09:08:59.475Z,2.90
2023-02-28T09:11:26.889Z,2.80
2023-02-28T09:14:08.955Z,2.80
2023-02-28T09:17:38.417Z,2.90
2023-02-28T09:20:12.472Z,2.90
2023-02-28T09:22:40.192Z,2.90
2023-02-28T09:25:07.380Z,3.10
2023-02-28T09:27:34.310Z,3.00
2023-02-28T09:30:01.299Z,3.10
2023-02-28T09:32:28.348Z,3.20
2023-02-28T09:34:55.373Z,3.20
2023-02-28T09:37:22.361Z,3.30
2023-02-28T09:39:49.244Z,3.40
2023-02-28T09:42:26.285Z,3.50
2023-02-28T09:44:53.744Z,3.50
2023-02-28T09:47:35.433Z,3.60
2023-02-28T09:50:20.357Z,3.60
2023-02-28T09:52:51.011Z,3.60
2023-02-28T09:55:27.548Z,3.60
2023-02-28T09:57:57.818Z,3.70
2023-02-28T10:00:34.152Z,3.50
2023-02-28T10:03:07.246Z,3.70
2023-02-28T10:05:36.986Z,3.70
2023-02-28T10:08:20.724Z,3.90
2023-02-28T10:10:58.579Z,3.90
2023-02-28T10:13:48.288Z,4.00
2023-02-28T10:16:22.363Z,4.10
2023-02-28T10:18:55.114Z,4.30
2023-02-28T10:21:29.142Z,4.40
2023-02-28T10:24:04.517Z,4.50
2023-02-28T10:26:33.037Z,4.50
2023-02-28T10:29:00.535Z,4.50
2023-02-28T10:31:28.368Z,4.40
2023-02-28T10:33:55.921Z,4.90
2023-02-28T10:36:23.112Z,4.90
2023-02-28T10:38:51.381Z,4.90
2023-02-28T10:41:37.076Z,5.00
2023-02-28T10:44:14.731Z,5.00
2023-02-28T10:46:43.662Z,5.00
2023-02-28T10:49:22.894Z,5.00
2023-02-28T10:51:54.395Z,5.00
2023-02-28T10:54:28.106Z,5.00
2023-02-28T10:57:21.233Z,5.20
2023-02-28T10:59:53.471Z,5.20
2023-02-28T11:02:39.428Z,5.50
2023-02-28T11:05:25.717Z,5.30
2023-02-28T11:08:00.299Z,5.30
2023-02-28T11:10:31.791Z,5.40
2023-02-28T11:13:01.270Z,5.10
2023-02-28T11:15:31.887Z,5.10
2023-02-28T11:18:03.563Z,5.00
2023-02-28T11:20:33.302Z,5.00
2023-02-28T11:23:02.764Z,4.90
2023-02-28T11:25:39.896Z,4.90
2023-02-28T11:28:24.716Z,4.90
2023-02-28T11:31:23.225Z,4.90
2023-02-28T11:33:56.739Z,5.00
2023-02-28T11:36:28.090Z,4.90
2023-02-28T11:38:58.589Z,4.90
2023-02-28T11:42:07.454Z,4.90
2023-02-28T11:44:40.471Z,4.90
2023-02-28T11:47:26.130Z,4.90
2023-02-28T11:50:18.344Z,4.90
2023-02-28T11:52:57.754Z,4.90
2023-02-28T11:55:36.658Z,5.00
2023-02-28T12:02:04.171Z,5.10
2023-02-28T12:05:01.877Z,5.20
2023-02-28T12:07:47.052Z,5.20
2023-02-28T12:10:35.445Z,5.20
2023-02-28T12:13:20.109Z,5.30
2023-02-28T12:15:46.896Z,5.30
2023-02-28T12:18:32.454Z,5.30
2023-02-28T12:21:33.280Z,5.40
2023-02-28T12:24:27.507Z,5.30
2023-02-28T12:26:55.844Z,5.40
2023-02-28T12:29:38.934Z,5.60
2023-02-28T12:32:22.763Z,5.40
2023-02-28T12:34:54.432Z,5.40
2023-02-28T12:37:28.779Z,5.40
2023-02-28T12:40:09.154Z,5.40
2023-02-28T12:42:43.560Z,5.50
2023-02-28T12:45:35.150Z,5.50
2023-02-28T12:48:06.160Z,5.50
2023-02-28T12:50:35.306Z,5.50
2023-02-28T12:53:17.492Z,5.50
2023-02-28T12:55:54.830Z,5.40
2023-02-28T12:58:24.545Z,5.40
2023-02-28T13:01:32.783Z,5.40
2023-02-28T13:04:09.019Z,5.50
2023-02-28T13:06:54.151Z,5.50
2023-02-28T13:09:22.303Z,5.50
2023-02-28T13:11:52.026Z,5.50
2023-02-28T13:14:27.299Z,5.40
2023-02-28T13:17:03.082Z,5.40
2023-02-28T13:19:34.401Z,5.50
2023-02-28T13:22:02.796Z,5.40
2023-02-28T13:24:40.219Z,5.50
2023-02-28T13:27:09.532Z,5.50
2023-02-28T13:29:41.341Z,5.50
2023-02-28T13:32:08.870Z,5.50
2023-02-28T13:34:38.351Z,5.50
2023-02-28T13:37:25.695Z,5.60
2023-02-28T13:40:08.189Z,5.70
2023-02-28T13:42:38.150Z,5.60
2023-02-28T13:45:05.063Z,5.60
2023-02-28T13:47:50.652Z,5.60
2023-02-28T13:50:26.771Z,5.60
2023-02-28T13:53:15.003Z,5.70
2023-02-28T13:55:54.142Z,5.70
2023-02-28T13:58:36.603Z,5.60
2023-02-28T14:01:33.080Z,5.60
2023-02-28T14:04:18.690Z,5.70
2023-02-28T14:06:51.525Z,5.60
2023-02-28T14:09:41.974Z,5.60
2023-02-28T14:12:46.477Z,5.60
2023-02-28T14:15:39.170Z,5.60
2023-02-28T14:18:40.320Z,5.60
2023-02-28T14:21:27.401Z,5.60
2023-02-28T14:24:23.348Z,5.60
2023-02-28T14:27:18.048Z,5.70
2023-02-28T14:30:08.939Z,5.60
2023-02-28T14:33:06.477Z,5.70
2023-02-28T14:35:43.558Z,5.70
2023-02-28T14:38:27.060Z,5.70
2023-02-28T14:40:57.639Z,5.70
2023-02-28T14:43:26.977Z,5.70
2023-02-28T14:46:01.030Z,5.70
2023-02-28T14:48:28.615Z,5.70
2023-02-28T14:50:58.885Z,5.70
2023-02-28T14:53:29.150Z,5.70
2023-02-28T14:55:56.319Z,5.70
2023-02-28T14:58:32.159Z,5.70
2023-02-28T15:01:04.106Z,5.70
2023-02-28T15:03:32.550Z,5.70
2023-02-28T15:06:13.121Z,5.60
2023-02-28T15:08:40.081Z,5.60
2023-02-28T15:11:13.294Z,5.60
2023-02-28T15:13:47.220Z,5.60
2023-02-28T15:16:24.138Z,5.60
2023-02-28T15:18:56.525Z,5.50
2023-02-28T15:21:27.028Z,5.50
2023-02-28T15:24:24.950Z,5.60
2023-02-28T15:26:57.112Z,5.60
2023-02-28T15:29:27.023Z,5.50
2023-02-28T15:32:06.520Z,5.50
2023-02-28T15:34:45.165Z,5.50
2023-02-28T15:37:46.277Z,5.40
2023-02-28T15:40:18.757Z,5.50
2023-02-28T15:42:59.655Z,5.40
2023-02-28T15:45:38.366Z,5.40
2023-02-28T15:48:32.536Z,5.40
2023-02-28T15:51:16.208Z,5.40
2023-02-28T15:54:06.757Z,5.50
2023-02-28T15:56:45.417Z,5.50
2023-02-28T15:59:32.291Z,5.30
2023-02-28T16:02:21.883Z,5.30
2023-02-28T16:04:59.057Z,5.30
2023-02-28T16:07:26.428Z,5.30
2023-02-28T16:09:53.957Z,5.20
2023-02-28T16:12:25.624Z,5.20
2023-02-28T16:14:55.128Z,5.20
2023-02-28T16:17:25.435Z,5.10
2023-02-28T16:19:52.739Z,5.10
2023-02-28T16:22:19.663Z,5.10
2023-02-28T16:24:46.590Z,5.10
2023-02-28T16:27:28.380Z,5.00
2023-02-28T16:29:55.313Z,5.00
2023-02-28T16:32:22.346Z,5.10
2023-02-28T16:34:49.527Z,5.00
2023-02-28T16:37:19.163Z,4.90
2023-02-28T16:39:46.883Z,4.90
2023-02-28T16:42:26.368Z,4.90
2023-02-28T16:44:54.130Z,4.80
2023-02-28T16:47:21.185Z,4.80
2023-02-28T16:49:48.596Z,4.80
2023-02-28T16:52:16.438Z,4.80
2023-02-28T16:54:43.602Z,4.80
2023-02-28T16:57:24.587Z,4.70
2023-02-28T16:59:54.513Z,4.60
2023-02-28T17:02:21.864Z,4.60
2023-02-28T17:04:48.994Z,4.60
2023-02-28T17:07:17.641Z,4.50
2023-02-28T17:09:46.707Z,4.40
2023-02-28T17:12:13.923Z,4.50
2023-02-28T17:14:40.841Z,4.30
2023-02-28T17:17:08.615Z,4.30
2023-02-28T17:19:37.102Z,4.20
2023-02-28T17:22:04.275Z,4.20
2023-02-28T17:24:34.491Z,4.20
2023-02-28T17:27:05.373Z,4.20
2023-02-28T17:29:32.247Z,4.20
2023-02-28T17:32:03.102Z,4.20
2023-02-28T17:34:35.755Z,4.20
2023-02-28T17:37:03.862Z,4.10
2023-02-28T17:39:31.839Z,4.10
2023-02-28T17:41:58.738Z,4.10
2023-02-28T17:44:26.064Z,4.10
2023-02-28T17:46:55.256Z,4.00
2023-02-28T17:49:22.677Z,4.00
2023-02-28T17:51:52.969Z,4.00
2023-02-28T17:54:19.915Z,3.90
2023-02-28T17:56:47.330Z,3.90
2023-02-28T17:59:14.875Z,3.90
2023-02-28T18:01:41.725Z,3.70
2023-02-28T18:04:08.610Z,3.70
2023-02-28T18:06:47.281Z,3.80
2023-02-28T18:09:16.711Z,3.50
2023-02-28T18:11:46.059Z,3.70
2023-02-28T18:14:13.123Z,3.50
2023-02-28T18:16:40.611Z,3.50
2023-02-28T18:19:08.538Z,3.50
2023-02-28T18:21:36.210Z,3.50
2023-02-28T18:24:03.227Z,3.50
2023-02-28T18:26:30.466Z,3.40
2023-02-28T18:28:57.632Z,3.40
2023-02-28T18:31:24.492Z,3.50
2023-02-28T18:33:52.657Z,3.50
2023-02-28T18:36:21.516Z,3.40
2023-02-28T18:38:50.466Z,3.30
2023-02-28T18:41:21.438Z,3.30
2023-02-28T18:43:52.008Z,3.30
2023-02-28T18:46:20.006Z,3.40
2023-02-28T18:48:47.700Z,3.20
2023-02-28T18:51:21.546Z,3.10
2023-02-28T18:53:48.808Z,3.30
2023-02-28T18:56:19.524Z,3.30
2023-02-28T18:58:46.889Z,3.20
2023-02-28T19:01:21.513Z,3.40
2023-02-28T19:03:49.715Z,3.10
2023-02-28T19:06:17.738Z,3.10
2023-02-28T19:08:44.633Z,3.20
2023-02-28T19:11:16.722Z,2.90
2023-02-28T19:13:44.467Z,2.90
2023-02-28T19:16:13.649Z,2.80
2023-02-28T19:18:41.104Z,2.90
2023-02-28T19:21:10.320Z,2.70
2023-02-28T19:23:37.962Z,2.70
2023-02-28T19:26:10.141Z,2.70
2023-02-28T19:28:38.243Z,2.60
2023-02-28T19:31:05.930Z,2.70
2023-02-28T19:33:32.803Z,2.60
2023-02-28T19:36:01.383Z,2.40
2023-02-28T19:38:28.344Z,2.50
2023-02-28T19:41:06.621Z,2.50
2023-02-28T19:43:33.530Z,2.40
2023-02-28T19:46:00.778Z,2.40
2023-02-28T19:48:28.441Z,2.40
2023-02-28T19:51:03.590Z,2.40
2023-02-28T19:53:32.201Z,2.40
2023-02-28T19:56:04.194Z,2.40
2023-02-28T19:58:32.560Z,2.40
2023-02-28T20:01:06.097Z,2.30
2023-02-28T20:03:33.018Z,2.40
2023-02-28T20:06:02.332Z,2.20
2023-02-28T20:08:29.907Z,2.20
2023-02-28T20:11:05.989Z,2.10
2023-02-28T20:13:33.148Z,2.10
2023-02-28T20:16:01.866Z,2.10
2023-02-28T20:18:29.248Z,2.00
2023-02-28T20:20:56.165Z,2.00
2023-02-28T20:23:23.259Z,2.00
2023-02-28T20:25:51.433Z,2.00
2023-02-28T20:28:21.193Z,2.00
2023-02-28T20:30:50.838Z,1.90
2023-02-28T20:33:19.371Z,1.90
2023-02-28T20:35:46.432Z,1.90
2023-02-28T20:38:13.293Z,1.80
2023-02-28T20:40:40.750Z,1.80
2023-02-28T20:43:07.992Z,2.00
2023-02-28T20:45:35.748Z,2.00
2023-02-28T20:48:02.982Z,1.80
2023-02-28T20:50:30.012Z,1.80
2023-02-28T20:52:57.326Z,1.80
2023-02-28T20:55:24.453Z,1.80
2023-02-28T20:57:51.346Z,1.80
2023-02-28T21:00:19.300Z,1.70
2023-02-28T21:02:47.346Z,1.70
2023-02-28T21:05:14.532Z,1.70
2023-02-28T21:07:41.535Z,1.70
2023-02-28T21:10:09.698Z,1.70
2023-02-28T21:12:36.762Z,1.70
2023-02-28T21:15:07.160Z,1.70
2023-02-28T21:17:34.275Z,1.70
2023-02-28T21:20:01.212Z,1.60
2023-02-28T21:22:28.272Z,1.60
2023-02-28T21:24:55.193Z,1.60
2023-02-28T21:27:22.098Z,1.50
2023-02-28T21:29:48.954Z,1.50
2023-02-28T21:32:15.848Z,1.50
2023-02-28T21:34:42.789Z,1.50
2023-02-28T21:37:11.871Z,1.40
2023-02-28T21:39:38.910Z,1.40
2023-02-28T21:42:05.799Z,1.40
2023-02-28T21:44:34.451Z,1.40
2023-02-28T21:47:02.544Z,1.40
2023-02-28T21:49:32.403Z,1.40
2023-02-28T21:51:59.354Z,1.40
2023-02-28T21:54:27.134Z,1.30
2023-02-28T21:56:55.387Z,1.30
2023-02-28T21:59:22.684Z,1.30
2023-02-28T22:01:55.004Z,1.30
2023-02-28T22:04:22.492Z,1.30
2023-02-28T22:06:59.697Z,1.50
2023-02-28T22:09:26.635Z,1.30
2023-02-28T22:11:56.281Z,1.30
2023-02-28T22:14:23.889Z,1.20
2023-02-28T22:16:53.746Z,1.20
2023-02-28T22:19:21.872Z,1.20
2023-02-28T22:21:48.939Z,1.20
2023-02-28T22:24:17.795Z,1.20
2023-02-28T22:26:45.066Z,1.20
2023-02-28T22:29:12.164Z,1.20
2023-02-28T22:31:39.281Z,1.30
2023-02-28T22:34:18.698Z,1.20
2023-02-28T22:36:55.161Z,1.20
2023-02-28T22:39:28.542Z,1.20
2023-02-28T22:42:18.253Z,1.10
2023-02-28T22:44:46.734Z,1.10
2023-02-28T22:47:13.627Z,1.30
2023-02-28T22:49:40.463Z,1.10
2023-02-28T22:52:07.361Z,1.10
2023-02-28T22:54:34.288Z,1.10
2023-02-28T22:57:01.245Z,1.10
2023-02-28T22:59:28.131Z,1.30
2023-02-28T23:01:55.010Z,1.10
2023-02-28T23:04:25.580Z,1.00
2023-02-28T23:06:52.897Z,1.00
2023-02-28T23:09:21.514Z,1.00
2023-02-28T23:11:50.280Z,1.00
2023-02-28T23:14:18.928Z,1.00
2023-02-28T23:16:48.874Z,1.00
2023-02-28T23:19:20.809Z,1.20
2023-02-28T23:21:48.322Z,1.00
2023-02-28T23:24:17.238Z,1.00
2023-02-28T23:26:47.118Z,0.90
2023-02-28T23:29:15.962Z,1.00
2023-02-28T23:31:42.948Z,0.90
2023-02-28T23:34:10.779Z,1.10
2023-02-28T23:36:39.645Z,1.20
2023-02-28T23:39:06.613Z,0.90
2023-02-28T23:41:33.518Z,0.90
2023-02-28T23:44:00.368Z,0.90
2023-02-28T23:46:27.308Z,0.90
2023-02-28T23:48:54.125Z,0.90
2023-02-28T23:51:22.005Z,0.90
2023-02-28T23:53:51.825Z,0.80
2023-02-28T23:56:23.974Z,0.80
2023-02-28T23:58:51.934Z,0.80
